Time;durP1;ratioP1;P1;durP2;ratioP2;P2;SDS_P1;SDS_P2;PMS_P1;PMS_P2;Temp;Humidity;BMP_temperature;BMP_pressure;BME280_temperature;BME280_humidity;BME280_pressure;Samples;Min_cycle;Max_cycle;Signal;HPM_P1;HPM_P2
2021/12/19 00:00:09;;;;;;;69.27;28.60;;;;;;;4.78;100.00;102754.16;844281;23;1291;-86
2021/12/19 00:00:33;;;;;;;68.20;27.88;;;;;;;4.82;100.00;102767.25;844631;23;1521;-85
2021/12/19 00:01:02;;;;;;;68.25;28.63;;;;;;;4.79;100.00;102752.47;840693;23;1202;-86
2021/12/19 00:02:40;;;;;;;66.47;28.23;;;;;;;4.83;100.00;102754.41;845508;23;1190;-86
2021/12/19 00:08:50;;;;;;;66.70;28.52;;;;;;;4.80;100.00;102748.16;844473;23;1287;-86
2021/12/19 00:09:11;;;;;;;68.16;27.66;;;;;;;4.81;100.00;102749.97;842773;23;5527;-86
2021/12/19 00:09:32;;;;;;;64.32;27.85;;;;;;;4.79;100.00;102744.69;840107;23;1283;-86
2021/12/19 00:09:53;;;;;;;65.82;27.45;;;;;;;4.77;100.00;102778.28;835961;23;1053;-86
2021/12/19 00:10:13;;;;;;;70.03;27.98;;;;;;;4.84;100.00;102750.13;840509;23;1359;-86
2021/12/19 00:10:36;;;;;;;68.03;28.23;;;;;;;4.85;100.00;102749.31;840615;23;1299;-86
2021/12/19 00:10:57;;;;;;;65.70;27.77;;;;;;;4.83;100.00;102782.94;838932;23;4292;-86
2021/12/19 00:11:20;;;;;;;64.82;28.15;;;;;;;4.82;100.00;102775.94;837094;23;1217;-86
2021/12/19 00:11:41;;;;;;;66.15;27.58;;;;;;;4.81;100.00;102752.56;837799;23;1476;-86
2021/12/19 00:12:02;;;;;;;67.27;27.47;;;;;;;4.80;100.00;102754.22;837876;23;1003;-86
2021/12/19 00:12:23;;;;;;;65.50;27.15;;;;;;;4.80;100.00;102754.22;840784;23;1496;-86
2021/12/19 00:12:44;;;;;;;67.13;27.50;;;;;;;4.76;100.00;102773.94;844681;23;1154;-86
2021/12/19 00:13:06;;;;;;;63.50;26.98;;;;;;;4.78;100.00;102756.75;844823;23;1621;-86
2021/12/19 00:13:28;;;;;;;68.70;28.25;;;;;;;4.77;100.00;102770.50;840452;23;1330;-86
2021/12/19 00:13:49;;;;;;;69.07;28.02;;;;;;;4.77;100.00;102761.84;832104;23;4284;-86
2021/12/19 00:14:12;;;;;;;66.30;27.52;;;;;;;4.76;100.00;102752.28;838556;23;923;-86
2021/12/19 00:14:33;;;;;;;66.50;27.77;;;;;;;4.77;100.00;102770.50;832834;23;1262;-86
2021/12/19 00:14:53;;;;;;;64.90;27.83;;;;;;;4.76;100.00;102789.47;836103;23;1171;-86
2021/12/19 00:15:13;;;;;;;62.93;26.77;;;;;;;4.75;100.00;102751.41;832979;23;1310;-86
2021/12/19 00:15:34;;;;;;;60.77;25.97;;;;;;;4.75;100.00;102766.97;844499;23;1227;-86
2021/12/19 00:15:58;;;;;;;63.33;26.77;;;;;;;4.75;100.00;102787.69;850664;23;907;-86
2021/12/19 00:16:22;;;;;;;66.18;26.95;;;;;;;4.76;100.00;102747.09;848983;23;1279;-86
2021/12/19 00:16:42;;;;;;;65.57;26.85;;;;;;;4.76;100.00;102791.16;843705;23;4236;-86
2021/12/19 00:17:03;;;;;;;62.90;26.27;;;;;;;4.76;100.00;102747.09;835727;23;1157;-86
2021/12/19 00:17:24;;;;;;;63.03;26.47;;;;;;;4.75;100.00;102773.84;836514;23;1158;-86
2021/12/19 00:17:44;;;;;;;63.40;27.53;;;;;;;4.73;100.00;102768.56;844406;23;1144;-86
2021/12/19 00:18:05;;;;;;;62.85;27.20;;;;;;;4.72;100.00;102771.97;840416;23;1348;-85
2021/12/19 00:18:35;;;;;;;64.25;27.15;;;;;;;4.73;100.00;102747.84;845100;23;1365;-87
2021/12/19 00:18:57;;;;;;;64.18;27.42;;;;;;;4.73;100.00;102771.16;844515;23;1901;-86
2021/12/19 00:19:18;;;;;;;66.55;27.27;;;;;;;4.75;100.00;102769.56;844701;23;1331;-86
2021/12/19 00:19:39;;;;;;;64.32;26.75;;;;;;;4.76;100.00;102742.84;844881;23;1322;-86
2021/12/19 00:19:59;;;;;;;64.30;27.35;;;;;;;4.76;100.00;102741.91;839741;23;4664;-86
2021/12/19 00:20:19;;;;;;;64.03;26.80;;;;;;;4.75;100.00;102741.03;844366;23;1176;-86
2021/12/19 00:20:40;;;;;;;64.47;27.25;;;;;;;4.79;100.00;102752.47;840724;23;1239;-86
2021/12/19 00:21:01;;;;;;;64.00;26.97;;;;;;;4.78;100.00;102745.50;845495;23;1365;-87
2021/12/19 00:21:22;;;;;;;67.55;27.15;;;;;;;4.78;100.00;102746.38;844447;23;1239;-86
2021/12/19 00:21:44;;;;;;;64.93;27.23;;;;;;;4.77;100.00;102739.41;842158;23;959;-86
2021/12/19 00:22:04;;;;;;;65.60;27.42;;;;;;;4.80;100.00;102758.53;836411;23;1272;-86
2021/12/19 00:22:25;;;;;;;66.60;27.73;;;;;;;4.76;100.00;102736.75;837427;23;805;-86
2021/12/19 00:22:46;;;;;;;66.40;26.53;;;;;;;4.75;100.00;102733.28;839286;23;4234;-86
2021/12/19 00:23:06;;;;;;;63.47;27.52;;;;;;;4.77;100.00;102759.25;848561;23;1243;-86
2021/12/19 00:23:27;;;;;;;65.38;27.50;;;;;;;4.80;100.00;102750.75;840367;23;1254;-86
2021/12/19 00:23:50;;;;;;;66.43;27.07;;;;;;;4.78;100.00;102741.19;841247;23;1116;-86
2021/12/19 00:24:11;;;;;;;65.78;27.33;;;;;;;4.80;100.00;102762.00;842011;23;959;-86
2021/12/19 00:24:31;;;;;;;65.47;27.33;;;;;;;4.81;100.00;102760.31;844648;23;1244;-86
2021/12/19 00:24:52;;;;;;;64.13;27.55;;;;;;;4.80;100.00;102748.16;849970;23;1060;-86
2021/12/19 00:25:12;;;;;;;65.47;27.97;;;;;;;4.78;100.00;102754.16;845791;23;997;-86
2021/12/19 00:25:35;;;;;;;68.70;27.73;;;;;;;4.80;100.00;102735.22;844495;23;1383;-86
2021/12/19 00:25:56;;;;;;;66.22;27.45;;;;;;;4.78;100.00;102733.41;843639;23;5154;-86
2021/12/19 00:26:18;;;;;;;66.53;27.83;;;;;;;4.77;100.00;102748.91;837341;23;1381;-86
2021/12/19 00:26:41;;;;;;;67.10;26.83;;;;;;;4.78;100.00;102730.84;838261;23;864;-86
2021/12/19 00:27:12;;;;;;;65.05;27.38;;;;;;;4.77;100.00;102733.34;844667;23;4864;-86
2021/12/19 00:27:33;;;;;;;63.33;26.88;;;;;;;4.83;100.00;102732.78;840065;23;1185;-86
2021/12/19 00:27:53;;;;;;;63.07;26.23;;;;;;;4.85;100.00;102751.91;841725;23;916;-86
2021/12/19 00:28:14;;;;;;;61.75;26.50;;;;;;;4.84;100.00;102735.44;840044;23;1145;-86
2021/12/19 00:28:35;;;;;;;60.93;25.97;;;;;;;4.85;100.00;102742.41;836175;23;1246;-86
2021/12/19 00:28:55;;;;;;;61.72;26.33;;;;;;;4.84;100.00;102719.91;840139;23;4304;-86
2021/12/19 00:29:15;;;;;;;64.88;26.88;;;;;;;4.86;100.00;102732.94;842165;23;725;-86
2021/12/19 00:29:36;;;;;;;61.47;26.97;;;;;;;4.85;100.00;102749.31;836681;23;1380;-86
2021/12/19 00:29:57;;;;;;;62.22;27.42;;;;;;;4.83;100.00;102736.28;840698;23;1332;-86
2021/12/19 00:30:18;;;;;;;65.97;27.92;;;;;;;4.82;100.00;102741.34;840178;23;1554;-85
2021/12/19 00:30:38;;;;;;;65.53;26.75;;;;;;;4.81;100.00;102727.50;844739;23;1188;-86
2021/12/19 00:30:59;;;;;;;62.80;26.20;;;;;;;4.79;100.00;102744.69;841216;23;1262;-86
2021/12/19 00:31:19;;;;;;;66.03;28.03;;;;;;;4.75;100.00;102733.28;840943;23;1177;-86
2021/12/19 00:31:40;;;;;;;65.13;27.83;;;;;;;4.75;100.00;102735.88;845994;23;1099;-86
2021/12/19 00:32:01;;;;;;;68.57;28.00;;;;;;;4.75;100.00;102733.28;839935;23;4254;-86
2021/12/19 00:32:21;;;;;;;66.43;26.33;;;;;;;4.72;100.00;102766.81;844458;23;1235;-86
2021/12/19 00:32:42;;;;;;;64.40;26.48;;;;;;;4.76;100.00;102736.75;840278;23;1172;-86
2021/12/19 00:33:03;;;;;;;66.53;26.93;;;;;;;4.73;100.00;102732.28;836636;23;1236;-86
2021/12/19 00:33:23;;;;;;;68.53;27.30;;;;;;;4.73;100.00;102750.41;832414;23;1227;-86
2021/12/19 00:33:44;;;;;;;67.65;27.33;;;;;;;4.72;100.00;102748.66;833927;23;1046;-86
2021/12/19 00:34:06;;;;;;;65.05;26.13;;;;;;;4.72;100.00;102729.63;837236;23;1315;-86
2021/12/19 00:34:26;;;;;;;66.32;25.88;;;;;;;4.71;100.00;102740.81;840644;23;1217;-86
2021/12/19 00:34:50;;;;;;;68.47;26.97;;;;;;;4.71;100.00;102720.97;843579;23;4264;-86
2021/12/19 00:35:11;;;;;;;66.95;27.48;;;;;;;4.73;100.00;102732.28;844067;23;1287;-86
2021/12/19 00:35:31;;;;;;;66.97;26.77;;;;;;;4.73;100.00;102727.09;840457;23;1228;-86
2021/12/19 00:35:52;;;;;;;68.07;27.20;;;;;;;4.73;100.00;102732.28;844362;23;1111;-86
2021/12/19 00:36:13;;;;;;;69.20;26.50;;;;;;;4.75;100.00;102725.50;841879;23;930;-86
2021/12/19 00:36:33;;;;;;;70.28;27.13;;;;;;;4.76;100.00;102728.97;841061;23;1146;-86
2021/12/19 00:36:54;;;;;;;67.30;26.70;;;;;;;4.75;100.00;102751.41;840390;23;1074;-86
2021/12/19 00:37:14;;;;;;;67.90;27.33;;;;;;;4.77;100.00;102733.34;845035;23;1144;-86
2021/12/19 00:37:38;;;;;;;65.93;26.98;;;;;;;4.77;100.00;102730.75;845108;23;1271;-86
2021/12/19 00:38:01;;;;;;;63.92;26.63;;;;;;;4.76;100.00;102745.44;839505;23;4248;-86
2021/12/19 00:38:21;;;;;;;69.37;26.67;;;;;;;4.77;100.00;102736.81;840130;23;1260;-86
2021/12/19 00:38:42;;;;;;;64.88;26.27;;;;;;;4.77;100.00;102735.94;836278;23;1427;-86
2021/12/19 00:39:03;;;;;;;65.47;26.42;;;;;;;4.76;100.00;102736.75;836901;23;1897;-86
2021/12/19 00:39:23;;;;;;;63.33;26.83;;;;;;;4.77;100.00;102733.34;836627;23;1132;-86
2021/12/19 00:39:44;;;;;;;64.10;26.27;;;;;;;4.74;100.00;102728.88;844767;23;1169;-86
2021/12/19 00:40:05;;;;;;;61.27;25.77;;;;;;;4.74;100.00;102753.91;844215;23;1456;-86
2021/12/19 00:40:25;;;;;;;64.53;26.63;;;;;;;4.76;100.00;102728.97;840696;23;1219;-86
2021/12/19 00:40:46;;;;;;;66.60;26.83;;;;;;;4.76;100.00;102728.97;839779;23;4273;-86
2021/12/19 00:41:08;;;;;;;64.40;26.15;;;;;;;4.76;100.00;102737.66;840295;23;1249;-86
2021/12/19 00:41:29;;;;;;;61.00;26.15;;;;;;;4.76;100.00;102758.38;840459;23;1369;-86
2021/12/19 00:41:52;;;;;;;61.83;26.15;;;;;;;4.76;100.00;102740.25;840979;23;1382;-86
2021/12/19 00:42:14;;;;;;;61.33;26.58;;;;;;;4.76;100.00;102734.16;840625;23;1382;-86
2021/12/19 00:42:36;;;;;;;60.75;25.73;;;;;;;4.75;100.00;102746.22;836558;23;1359;-87
2021/12/19 00:43:05;;;;;;;61.63;26.20;;;;;;;4.76;100.00;102729.88;836263;23;1216;-86
2021/12/19 00:43:47;;;;;;;64.57;26.45;;;;;;;4.88;100.00;102749.47;844212;23;4820;-86
2021/12/19 00:44:09;;;;;;;63.35;26.77;;;;;;;4.85;100.00;102734.63;840124;23;4844;-86
2021/12/19 00:44:32;;;;;;;61.70;26.52;;;;;;;4.85;100.00;102746.72;844264;23;1596;-86
2021/12/19 00:44:53;;;;;;;61.40;26.95;;;;;;;4.84;100.00;102750.13;840749;23;1415;-86
2021/12/19 00:45:24;;;;;;;61.15;26.05;;;;;;;4.79;100.00;102747.28;841069;23;916;-86
2021/12/19 00:45:47;;;;;;;64.07;27.45;;;;;;;4.77;100.00;102722.97;844478;23;1490;-86
2021/12/19 00:46:08;;;;;;;65.78;27.48;;;;;;;4.76;100.00;102723.78;840170;23;1304;-86
2021/12/19 00:46:29;;;;;;;64.25;26.63;;;;;;;4.77;100.00;102747.19;836044;23;1340;-86
2021/12/19 00:47:04;;;;;;;61.75;26.90;;;;;;;4.76;100.00;102722.09;821377;23;4291;-86
2021/12/19 00:47:27;;;;;;;61.08;26.35;;;;;;;4.77;100.00;102730.75;844548;23;1342;-85
2021/12/19 00:47:48;;;;;;;64.47;26.40;;;;;;;4.78;100.00;102732.53;840381;23;1253;-86
2021/12/19 00:48:09;;;;;;;62.07;26.00;;;;;;;4.77;100.00;102748.91;844348;23;1101;-86
2021/12/19 00:48:29;;;;;;;66.07;27.00;;;;;;;4.75;100.00;102722.91;839775;23;1226;-85
2021/12/19 00:48:53;;;;;;;63.60;27.00;;;;;;;4.76;100.00;102722.09;844038;23;1391;-86
2021/12/19 00:49:15;;;;;;;59.35;25.00;;;;;;;4.77;100.00;102744.59;844443;23;1412;-86
2021/12/19 00:49:36;;;;;;;60.13;25.98;;;;;;;4.75;100.00;102716.84;845215;23;1368;-87
2021/12/19 00:49:56;;;;;;;57.80;25.80;;;;;;;4.77;100.00;102717.81;843298;23;4275;-86
2021/12/19 00:50:18;;;;;;;59.35;26.60;;;;;;;4.77;100.00;102713.50;837134;23;1139;-86
2021/12/19 00:50:38;;;;;;;60.65;26.05;;;;;;;4.77;100.00;102721.28;833814;23;939;-86
2021/12/19 00:50:59;;;;;;;63.50;26.93;;;;;;;4.77;100.00;102729.03;839997;23;1194;-86
2021/12/19 00:51:23;;;;;;;62.95;27.35;;;;;;;4.77;100.00;102718.69;840090;23;1265;-86
2021/12/19 00:51:45;;;;;;;59.42;25.88;;;;;;;4.77;100.00;102749.78;840294;23;1509;-86
2021/12/19 00:52:08;;;;;;;61.25;26.15;;;;;;;4.76;100.00;102726.38;841208;23;1389;-86
2021/12/19 00:52:28;;;;;;;61.53;26.45;;;;;;;4.76;100.00;102727.28;840900;23;1456;-86
2021/12/19 00:52:49;;;;;;;60.07;25.70;;;;;;;4.76;100.00;102736.75;835546;23;4308;-86
2021/12/19 00:53:09;;;;;;;61.10;25.70;;;;;;;4.78;100.00;102733.41;836505;23;1212;-86
2021/12/19 00:53:39;;;;;;;59.53;25.33;;;;;;;4.77;100.00;102741.13;839906;23;1323;-86
2021/12/19 00:53:59;;;;;;;60.47;26.05;;;;;;;4.78;100.00;102730.84;840465;23;1291;-86
2021/12/19 00:54:20;;;;;;;60.75;26.50;;;;;;;4.77;100.00;102725.56;840625;23;1152;-86
2021/12/19 00:54:40;;;;;;;59.17;26.35;;;;;;;4.76;100.00;102745.44;841351;23;1207;-86
2021/12/19 00:55:02;;;;;;;60.97;25.27;;;;;;;4.78;100.00;102741.19;836521;23;1209;-86
2021/12/19 00:55:24;;;;;;;62.82;26.16;;;;;;;4.81;100.00;102718.88;836297;23;1228;-86
2021/12/19 00:55:45;;;;;;;60.67;25.80;;;;;;;4.82;100.00;102730.97;835885;23;4302;-86
2021/12/19 00:56:05;;;;;;;60.47;25.93;;;;;;;4.81;100.00;102747.38;840428;23;1283;-85
2021/12/19 00:56:26;;;;;;;59.70;25.90;;;;;;;4.80;100.00;102748.16;842044;23;987;-86
2021/12/19 00:56:48;;;;;;;58.70;25.95;;;;;;;4.82;100.00;102730.97;840572;23;1342;-86
2021/12/19 00:57:12;;;;;;;60.78;26.10;;;;;;;4.82;100.00;102741.34;840633;23;1382;-86
2021/12/19 00:57:32;;;;;;;58.92;25.60;;;;;;;4.81;100.00;102729.22;836251;23;4725;-86
2021/12/19 00:57:54;;;;;;;59.00;26.43;;;;;;;4.77;100.00;102726.44;833994;23;844;-86
2021/12/19 00:58:14;;;;;;;59.45;26.27;;;;;;;4.82;100.00;102736.16;832533;23;1183;-87
2021/12/19 00:58:35;;;;;;;57.87;25.90;;;;;;;4.80;100.00;102733.50;840595;23;1125;-86
2021/12/19 00:58:56;;;;;;;62.03;26.80;;;;;;;4.80;100.00;102743.00;840027;23;4333;-86
2021/12/19 00:59:17;;;;;;;61.53;26.13;;;;;;;4.80;100.00;102725.72;840150;23;1259;-86
2021/12/19 00:59:38;;;;;;;64.97;26.60;;;;;;;4.77;100.00;102726.44;836787;23;1331;-86
2021/12/19 00:59:58;;;;;;;60.87;26.20;;;;;;;4.79;100.00;102734.34;840565;23;1370;-86
2021/12/19 01:00:22;;;;;;;59.08;26.27;;;;;;;4.78;100.00;102712.69;840275;23;1450;-86
2021/12/19 01:00:43;;;;;;;63.25;27.02;;;;;;;4.76;100.00;102710.81;840296;23;1256;-86
2021/12/19 01:01:13;;;;;;;61.75;26.17;;;;;;;4.75;100.00;102711.66;840625;23;1369;-86
2021/12/19 01:01:35;;;;;;;56.63;25.67;;;;;;;4.75;100.00;102709.06;839826;23;1220;-87
2021/12/19 01:01:55;;;;;;;60.92;26.05;;;;;;;4.76;100.00;102736.75;839616;23;4565;-86
2021/12/19 01:02:16;;;;;;;64.70;26.20;;;;;;;4.75;100.00;102707.34;841089;23;1382;-86
2021/12/19 01:02:36;;;;;;;64.37;26.33;;;;;;;4.75;100.00;102709.94;836360;23;1288;-86
2021/12/19 01:02:59;;;;;;;61.63;26.38;;;;;;;4.81;100.00;102711.09;840315;23;1212;-86
2021/12/19 01:03:21;;;;;;;61.78;26.70;;;;;;;4.81;100.00;102726.63;841375;23;1006;-86
2021/12/19 01:03:44;;;;;;;62.22;26.30;;;;;;;4.78;100.00;102702.31;845710;23;994;-86
2021/12/19 01:04:09;;;;;;;60.30;26.23;;;;;;;4.77;100.00;102738.53;847711;23;4708;-86
2021/12/19 01:04:30;;;;;;;60.60;26.33;;;;;;;4.81;100.00;102737.00;844103;23;4897;-86
2021/12/19 01:04:50;;;;;;;60.33;26.40;;;;;;;4.79;100.00;102711.00;840010;23;4333;-86
2021/12/19 01:05:12;;;;;;;60.05;26.20;;;;;;;4.80;100.00;102705.00;844381;23;1274;-86
2021/12/19 01:05:36;;;;;;;61.90;26.38;;;;;;;4.80;100.00;102724.84;840704;23;1240;-86
2021/12/19 01:05:57;;;;;;;59.40;25.15;;;;;;;4.80;100.00;102715.34;840214;23;4612;-86
2021/12/19 01:06:19;;;;;;;60.60;25.08;;;;;;;4.78;100.00;102722.19;848677;23;1133;-86
2021/12/19 01:06:41;;;;;;;64.22;26.58;;;;;;;4.78;100.00;102738.59;844336;23;1183;-85
2021/12/19 01:07:11;;;;;;;66.32;26.90;;;;;;;4.79;100.00;102700.66;843912;23;4603;-86
2021/12/19 01:07:31;;;;;;;60.72;26.27;;;;;;;4.80;100.00;102730.03;844802;23;6145;-86
2021/12/19 01:07:53;;;;;;;66.30;27.23;;;;;;;4.77;100.00;102703.13;835517;23;4338;-86
2021/12/19 01:08:14;;;;;;;63.97;27.17;;;;;;;4.76;100.00;102701.38;844219;23;1220;-86
2021/12/19 01:08:34;;;;;;;59.63;26.27;;;;;;;4.75;100.00;102707.34;845700;23;863;-87
2021/12/19 01:08:56;;;;;;;59.67;25.10;;;;;;;4.78;100.00;102707.50;840908;23;1326;-86
2021/12/19 01:09:17;;;;;;;63.17;25.85;;;;;;;4.76;100.00;102709.16;841746;23;859;-86
2021/12/19 01:09:38;;;;;;;62.70;26.35;;;;;;;4.76;100.00;102721.19;848175;23;1503;-86
2021/12/19 01:09:59;;;;;;;60.95;25.50;;;;;;;4.76;100.00;102706.56;840999;23;1304;-86
2021/12/19 01:10:20;;;;;;;62.95;26.15;;;;;;;4.77;100.00;102710.91;841874;23;807;-86
2021/12/19 01:10:44;;;;;;;64.60;26.13;;;;;;;4.77;100.00;102749.78;844597;23;1253;-87
2021/12/19 01:11:05;;;;;;;63.83;26.30;;;;;;;4.77;100.00;102697.94;839898;23;9098;-85
2021/12/19 01:11:26;;;;;;;61.90;25.57;;;;;;;4.80;100.00;102706.72;840462;23;1103;-87
2021/12/19 01:11:49;;;;;;;64.10;26.67;;;;;;;4.79;100.00;102729.16;843020;23;1177;-86
2021/12/19 01:12:10;;;;;;;65.03;26.17;;;;;;;4.81;100.00;102719.75;845384;23;5039;-86
2021/12/19 01:12:31;;;;;;;64.40;26.42;;;;;;;4.81;100.00;102705.91;843945;23;1311;-86
2021/12/19 01:12:52;;;;;;;66.43;27.05;;;;;;;4.81;100.00;102706.78;841141;23;1273;-86
2021/12/19 01:13:14;;;;;;;63.37;26.87;;;;;;;4.78;100.00;102717.88;840678;23;998;-86
2021/12/19 01:13:34;;;;;;;62.13;27.20;;;;;;;4.80;100.00;102724.84;836572;23;1156;-86
2021/12/19 01:13:56;;;;;;;63.07;26.27;;;;;;;4.81;100.00;102700.72;839286;23;4432;-86
2021/12/19 01:14:17;;;;;;;66.13;26.45;;;;;;;4.80;100.00;102737.81;844483;23;1678;-86
2021/12/19 01:14:37;;;;;;;67.40;26.75;;;;;;;4.79;100.00;102698.06;843963;23;1342;-86
2021/12/19 01:14:58;;;;;;;63.70;26.58;;;;;;;4.81;100.00;102729.22;844445;23;1147;-86
2021/12/19 01:15:19;;;;;;;65.13;26.73;;;;;;;4.81;100.00;102739.59;841346;23;1246;-86
2021/12/19 01:15:41;;;;;;;64.32;26.40;;;;;;;4.78;100.00;102709.22;840885;23;1232;-86
2021/12/19 01:16:02;;;;;;;65.07;27.30;;;;;;;4.78;100.00;102704.03;844237;23;1145;-86
2021/12/19 01:16:23;;;;;;;61.20;26.70;;;;;;;4.78;100.00;102702.31;839824;23;1151;-86
2021/12/19 01:16:43;;;;;;;60.70;26.30;;;;;;;4.78;100.00;102743.78;840578;23;1160;-86
2021/12/19 01:17:05;;;;;;;58.83;26.20;;;;;;;4.78;100.00;102712.69;840010;23;4594;-87
2021/12/19 01:17:28;;;;;;;61.22;26.30;;;;;;;4.80;100.00;102717.94;843859;23;5295;-86
2021/12/19 01:17:49;;;;;;;59.97;26.20;;;;;;;4.81;100.00;102711.09;849150;23;1219;-86
2021/12/19 01:18:22;;;;;;;62.33;26.17;;;;;;;4.83;100.00;102706.84;840594;23;1188;-86
2021/12/19 01:18:43;;;;;;;60.33;25.88;;;;;;;4.81;100.00;102705.91;835890;23;5598;-86
2021/12/19 01:19:03;;;;;;;54.90;25.52;;;;;;;4.80;100.00;102707.59;844285;23;1889;-86
2021/12/19 01:19:24;;;;;;;57.88;25.13;;;;;;;4.83;100.00;102727.59;840157;23;1256;-86
2021/12/19 01:19:45;;;;;;;59.93;24.90;;;;;;;4.83;100.00;102733.69;837330;23;4495;-86
2021/12/19 01:20:14;;;;;;;57.25;25.33;;;;;;;4.83;100.00;102712.03;837727;23;927;-86
2021/12/19 01:20:38;;;;;;;57.33;25.63;;;;;;;4.80;100.00;102724.84;838404;23;1006;-86
2021/12/19 01:20:59;;;;;;;56.78;25.33;;;;;;;4.81;100.00;102703.31;844344;23;1184;-86
2021/12/19 01:21:20;;;;;;;58.33;24.73;;;;;;;4.80;100.00;102706.72;844818;23;812;-86
2021/12/19 01:21:40;;;;;;;56.83;25.33;;;;;;;4.81;100.00;102731.81;840828;23;1302;-86
2021/12/19 01:22:01;;;;;;;58.43;25.80;;;;;;;4.80;100.00;102706.72;840334;23;1207;-86
2021/12/19 01:22:22;;;;;;;59.05;26.10;;;;;;;4.81;100.00;102708.50;841622;23;815;-86
2021/12/19 01:22:44;;;;;;;56.28;24.55;;;;;;;4.77;100.00;102731.63;840261;23;1280;-86
2021/12/19 01:23:05;;;;;;;55.88;24.75;;;;;;;4.78;100.00;102717.00;840192;23;4720;-86
2021/12/19 01:23:26;;;;;;;55.22;24.60;;;;;;;4.80;100.00;102714.47;841688;23;946;-86
2021/12/19 01:23:47;;;;;;;55.35;25.20;;;;;;;4.77;100.00;102717.81;844580;23;1341;-86
2021/12/19 01:24:08;;;;;;;57.55;25.80;;;;;;;4.82;100.00;102699.88;840142;23;1316;-86
2021/12/19 01:24:29;;;;;;;58.25;25.55;;;;;;;4.83;100.00;102709.44;840127;23;1362;-86
2021/12/19 01:24:49;;;;;;;55.17;25.58;;;;;;;4.80;100.00;102693.75;844235;23;1259;-87
2021/12/19 01:25:12;;;;;;;53.50;24.80;;;;;;;4.81;100.00;102696.41;848512;23;1255;-86
2021/12/19 01:25:35;;;;;;;53.78;24.48;;;;;;;4.80;100.00;102689.44;837207;23;1138;-86
2021/12/19 01:25:56;;;;;;;57.67;25.58;;;;;;;4.81;100.00;102726.63;836546;23;5163;-86
2021/12/19 01:26:17;;;;;;;56.17;25.58;;;;;;;4.79;100.00;102711.00;837074;23;1161;-86
2021/12/19 01:26:37;;;;;;;60.30;25.63;;;;;;;4.78;100.00;102694.56;840051;23;1337;-86
2021/12/19 01:26:58;;;;;;;57.70;25.05;;;;;;;4.78;100.00;102715.28;836376;23;1316;-86
2021/12/19 01:27:18;;;;;;;53.45;25.48;;;;;;;4.78;100.00;102689.38;832252;23;1296;-86
2021/12/19 01:27:43;;;;;;;51.67;24.33;;;;;;;4.81;100.00;102721.44;837584;23;982;-86
2021/12/19 01:28:04;;;;;;;53.80;24.73;;;;;;;4.87;100.00;102693.25;841089;23;903;-86
2021/12/19 01:28:24;;;;;;;56.65;24.38;;;;;;;4.87;100.00;102699.31;836532;23;1352;-86
2021/12/19 01:28:45;;;;;;;55.88;24.17;;;;;;;4.90;100.00;102698.56;840817;23;4292;-86
2021/12/19 01:29:06;;;;;;;52.57;24.30;;;;;;;4.89;100.00;102699.41;840735;23;1198;-86
2021/12/19 01:29:29;;;;;;;50.53;23.80;;;;;;;4.88;100.00;102695.91;835925;23;1118;-86
2021/12/19 01:29:49;;;;;;;55.88;25.42;;;;;;;4.85;100.00;102702.66;840391;23;1194;-86
2021/12/19 01:30:10;;;;;;;53.08;24.70;;;;;;;4.86;100.00;102696.66;840200;23;1196;-86
2021/12/19 01:30:31;;;;;;;52.15;24.65;;;;;;;4.88;100.00;102710.59;843917;23;1420;-86
2021/12/19 01:30:54;;;;;;;50.60;24.33;;;;;;;4.87;100.00;102717.44;841339;23;1220;-86
2021/12/19 01:31:14;;;;;;;53.38;24.35;;;;;;;4.84;100.00;102681.03;840415;23;1259;-86
2021/12/19 01:31:35;;;;;;;53.22;24.73;;;;;;;4.86;100.00;102725.16;840225;23;1153;-86
2021/12/19 01:31:56;;;;;;;54.47;24.83;;;;;;;4.84;100.00;102699.16;835932;23;4240;-86
2021/12/19 01:32:17;;;;;;;54.85;24.10;;;;;;;4.86;100.00;102694.06;836300;23;1349;-86
2021/12/19 01:32:38;;;;;;;61.00;24.73;;;;;;;4.85;100.00;102710.44;836352;23;1161;-86
2021/12/19 01:33:08;;;;;;;60.75;25.10;;;;;;;4.85;100.00;102694.88;837523;23;930;-86
2021/12/19 01:33:28;;;;;;;55.83;25.02;;;;;;;4.84;100.00;102719.00;837088;23;1061;-87
2021/12/19 01:33:49;;;;;;;54.20;24.87;;;;;;;4.83;100.00;102693.91;836399;23;1164;-86
2021/12/19 01:34:12;;;;;;;55.75;25.10;;;;;;;4.84;100.00;102703.47;836097;23;1238;-86
2021/12/19 01:34:33;;;;;;;56.00;24.83;;;;;;;4.84;100.00;102711.25;837771;23;974;-86
2021/12/19 01:34:53;;;;;;;58.30;25.53;;;;;;;4.83;100.00;102702.59;839453;23;4290;-86
2021/12/19 01:35:17;;;;;;;59.17;24.65;;;;;;;4.85;100.00;102713.03;840027;23;1297;-86
2021/12/19 01:35:42;;;;;;;58.15;24.75;;;;;;;4.84;100.00;102716.41;835962;23;1188;-86
2021/12/19 01:36:04;;;;;;;58.50;24.83;;;;;;;4.82;100.00;102687.84;840943;23;1181;-86
2021/12/19 01:36:24;;;;;;;51.15;24.75;;;;;;;4.83;100.00;102714.63;839678;23;1335;-86
2021/12/19 01:36:45;;;;;;;54.83;24.83;;;;;;;4.82;100.00;102693.03;840521;23;1244;-86
2021/12/19 01:37:06;;;;;;;54.13;24.52;;;;;;;4.80;100.00;102711.88;840307;23;1315;-86
2021/12/19 01:37:26;;;;;;;53.47;24.73;;;;;;;4.81;100.00;102692.94;841335;23;808;-86
2021/12/19 01:37:47;;;;;;;54.07;24.83;;;;;;;4.80;100.00;102717.94;835430;23;4269;-86
2021/12/19 01:38:11;;;;;;;56.03;24.40;;;;;;;4.80;100.00;102694.63;828444;23;1263;-86
2021/12/19 01:38:32;;;;;;;56.65;25.45;;;;;;;4.79;100.00;102721.38;834336;23;1537;-86
2021/12/19 01:38:54;;;;;;;55.15;24.95;;;;;;;4.81;100.00;102687.75;832689;23;1284;-86
2021/12/19 01:39:15;;;;;;;54.87;24.90;;;;;;;4.84;100.00;102693.09;836099;23;1873;-86
2021/12/19 01:39:38;;;;;;;54.85;25.17;;;;;;;4.85;100.00;102700.94;838552;23;1321;-86
2021/12/19 01:40:03;;;;;;;58.85;25.92;;;;;;;4.85;100.00;102702.66;834823;23;1164;-87
2021/12/19 01:40:25;;;;;;;54.45;24.92;;;;;;;4.86;100.00;102691.47;838314;23;1323;-86
2021/12/19 01:40:46;;;;;;;52.15;24.25;;;;;;;4.84;100.00;102693.09;837563;23;4254;-86
2021/12/19 01:41:07;;;;;;;55.90;24.83;;;;;;;4.85;100.00;102711.31;833903;23;1133;-86
2021/12/19 01:41:27;;;;;;;51.83;24.63;;;;;;;4.84;100.00;102716.41;834589;23;1222;-86
2021/12/19 01:41:53;;;;;;;50.75;23.95;;;;;;;4.84;100.00;102703.47;837872;23;1165;-86
2021/12/19 01:42:19;;;;;;;54.83;24.52;;;;;;;4.85;100.00;102688.00;834276;23;1240;-86
2021/12/19 01:42:42;;;;;;;52.83;24.35;;;;;;;4.85;100.00;102715.63;833676;23;1246;-86
2021/12/19 01:43:03;;;;;;;51.55;23.80;;;;;;;4.82;100.00;102686.94;834893;23;1021;-86
2021/12/19 01:43:26;;;;;;;53.15;24.25;;;;;;;4.85;100.00;102692.28;830555;23;1181;-86
2021/12/19 01:43:47;;;;;;;54.78;24.45;;;;;;;4.84;100.00;102691.38;816876;23;4284;-85
2021/12/19 01:44:07;;;;;;;55.05;24.35;;;;;;;4.85;100.00;102687.13;831924;23;845;-87
2021/12/19 01:44:28;;;;;;;52.35;24.10;;;;;;;4.85;100.00;102715.63;833823;23;1252;-86
2021/12/19 01:44:49;;;;;;;53.37;23.90;;;;;;;4.84;100.00;102704.34;834021;23;1137;-86
2021/12/19 01:45:13;;;;;;;51.75;23.75;;;;;;;4.84;100.00;102687.91;834153;23;1187;-86
2021/12/19 01:45:39;;;;;;;51.20;23.75;;;;;;;4.83;100.00;102709.44;838015;23;1266;-86
2021/12/19 01:46:00;;;;;;;53.40;24.75;;;;;;;4.84;100.00;102691.38;838381;23;1205;-86
2021/12/19 01:46:22;;;;;;;52.67;23.75;;;;;;;4.83;100.00;102686.13;839287;23;1172;-86
2021/12/19 01:46:46;;;;;;;50.47;23.95;;;;;;;4.82;100.00;102684.34;836086;23;914;-86
2021/12/19 01:47:07;;;;;;;49.70;23.92;;;;;;;4.83;100.00;102688.72;837696;23;4586;-86
2021/12/19 01:47:28;;;;;;;51.92;24.30;;;;;;;4.81;100.00;102688.63;838285;23;1418;-86
2021/12/19 01:47:49;;;;;;;48.58;24.08;;;;;;;4.83;100.00;102733.69;842278;23;1169;-86
2021/12/19 01:48:15;;;;;;;51.95;24.23;;;;;;;4.82;100.00;102685.25;844119;23;737;-86
2021/12/19 01:48:41;;;;;;;47.65;23.52;;;;;;;4.80;100.00;102694.63;840873;23;820;-86
2021/12/19 01:49:02;;;;;;;49.97;23.98;;;;;;;4.82;100.00;102710.25;844806;23;1213;-86